Time;durP1;ratioP1;P1;durP2;ratioP2;P2;SDS_P1;SDS_P2;PMS_P1;PMS_P2;Temp;Humidity;BMP_temperature;BMP_pressure;BME280_temperature;BME280_humidity;BME280_pressure;Samples;Min_cycle;Max_cycle;Signal;HPM_P1;HPM_P2
2021/12/27 00:00:13;;;;;;;10.10;7.63;;;-1.10;99.90;;;;;;5055169;28;20048;-84
2021/12/27 00:02:40;;;;;;;10.30;6.30;;;-1.10;99.90;;;;;;5073509;28;20048;-83
2021/12/27 00:05:06;;;;;;;7.20;5.43;;;-1.20;99.90;;;;;;5054871;28;20109;-84
2021/12/27 00:07:32;;;;;;;9.43;6.23;;;-1.20;99.90;;;;;;5046001;28;20052;-83
2021/12/27 00:10:00;;;;;;;12.32;7.40;;;-1.20;99.90;;;;;;5046799;28;20048;-84
2021/12/27 00:12:26;;;;;;;7.85;5.50;;;-0.90;99.90;;;;;;5080915;28;20300;-83
2021/12/27 00:14:52;;;;;;;16.92;6.43;;;-1.30;99.90;;;;;;5072464;28;20053;-83
2021/12/27 00:17:18;;;;;;;8.30;6.43;;;-1.30;99.90;;;;;;5055615;28;20040;-83
2021/12/27 00:19:43;;;;;;;6.47;5.13;;;-1.10;99.90;;;;;;5074004;28;20033;-84
2021/12/27 00:22:09;;;;;;;7.78;4.57;;;-1.30;99.90;;;;;;5060632;28;20044;-84
2021/12/27 00:24:35;;;;;;;9.75;4.47;;;-1.30;99.90;;;;;;5055641;28;20459;-83
2021/12/27 00:27:01;;;;;;;10.93;5.78;;;-0.90;99.90;;;;;;5058657;28;20073;-83
2021/12/27 00:29:26;;;;;;;7.43;4.55;;;-1.30;99.90;;;;;;5092206;28;20087;-83
2021/12/27 00:31:52;;;;;;;11.15;6.15;;;-1.20;99.90;;;;;;5073359;28;20478;-82
2021/12/27 00:34:18;;;;;;;14.50;5.70;;;-1.10;99.90;;;;;;5071705;28;20041;-83
2021/12/27 00:36:44;;;;;;;11.57;5.70;;;-1.10;99.90;;;;;;5072100;28;20470;-83
2021/12/27 00:39:09;;;;;;;12.45;7.05;;;-1.00;99.90;;;;;;5038060;28;20397;-86
2021/12/27 00:41:38;;;;;;;9.82;6.05;;;-1.20;99.90;;;;;;5055600;28;20071;-83
2021/12/27 00:44:04;;;;;;;11.70;6.43;;;-1.20;99.90;;;;;;5071605;28;20048;-83
2021/12/27 00:46:29;;;;;;;17.57;5.77;;;-1.20;99.90;;;;;;5038269;28;20048;-83
2021/12/27 00:48:55;;;;;;;16.88;6.80;;;-1.20;99.90;;;;;;5054937;28;20048;-83
2021/12/27 00:51:21;;;;;;;8.52;6.25;;;-1.10;99.90;;;;;;5071594;28;20044;-83
2021/12/27 00:53:46;;;;;;;19.40;6.95;;;-0.70;99.90;;;;;;5071473;28;20044;-83
2021/12/27 00:56:12;;;;;;;16.90;6.57;;;-1.10;99.90;;;;;;5054581;28;20044;-85
2021/12/27 00:58:38;;;;;;;6.28;5.53;;;-1.10;99.90;;;;;;5054685;28;20131;-83
2021/12/27 01:01:04;;;;;;;8.73;6.18;;;-1.10;99.90;;;;;;5071763;28;20543;-83
2021/12/27 01:03:29;;;;;;;10.23;6.22;;;-0.40;99.90;;;;;;5071422;28;20246;-83
2021/12/27 01:05:55;;;;;;;8.27;5.28;;;-1.10;99.90;;;;;;5055012;28;20045;-83
2021/12/27 01:08:21;;;;;;;11.40;6.90;;;-0.10;99.90;;;;;;5071253;28;20047;-83
2021/12/27 01:11:11;;;;;;;9.32;6.32;;;-1.10;99.90;;;;;;5071383;28;20087;-83
2021/12/27 01:13:41;;;;;;;12.73;6.78;;;-1.10;99.90;;;;;;5037925;28;20048;-83
2021/12/27 01:16:12;;;;;;;13.63;8.02;;;-0.20;99.90;;;;;;5054613;28;20599;-83
2021/12/27 01:18:48;;;;;;;14.48;5.65;;;-1.10;99.90;;;;;;5054346;28;20453;-83
2021/12/27 01:21:17;;;;;;;11.23;5.70;;;-1.10;99.90;;;;;;5059564;28;20040;-83
2021/12/27 01:23:43;;;;;;;9.55;6.30;;;-1.10;99.90;;;;;;5071381;28;20335;-83
2021/12/27 01:26:10;;;;;;;8.95;6.80;;;-0.40;99.90;;;;;;5071430;28;20056;-83
2021/12/27 01:28:36;;;;;;;11.02;6.13;;;-1.00;99.90;;;;;;5075238;28;20528;-83
2021/12/27 01:31:02;;;;;;;14.52;6.00;;;-1.00;99.90;;;;;;5070897;28;20040;-83
2021/12/27 01:33:28;;;;;;;15.63;5.88;;;-1.10;99.90;;;;;;5056491;28;20132;-84
2021/12/27 01:35:55;;;;;;;14.23;5.47;;;-1.00;99.90;;;;;;5071326;28;20475;-83
2021/12/27 01:38:21;;;;;;;10.98;6.20;;;-1.00;99.90;;;;;;5037462;28;20055;-84
2021/12/27 01:40:49;;;;;;;14.65;7.70;;;-1.10;99.90;;;;;;5037762;28;20036;-83
2021/12/27 01:43:22;;;;;;;13.15;7.00;;;-0.10;99.90;;;;;;5071298;28;20080;-83
2021/12/27 01:45:58;;;;;;;9.55;6.93;;;-1.00;99.90;;;;;;5053906;28;20132;-83
2021/12/27 01:48:32;;;;;;;11.40;5.63;;;-1.10;99.90;;;;;;5037725;28;20123;-83
2021/12/27 01:51:00;;;;;;;9.30;6.93;;;-1.10;99.90;;;;;;5071364;28;20433;-83
2021/12/27 01:53:29;;;;;;;17.65;6.38;;;-1.00;99.90;;;;;;5071790;28;20083;-83
2021/12/27 01:55:56;;;;;;;10.80;6.90;;;-1.00;99.90;;;;;;5054422;28;20127;-84
2021/12/27 01:58:24;;;;;;;23.45;8.02;;;-0.10;99.90;;;;;;5053957;28;20036;-84
2021/12/27 02:00:53;;;;;;;10.23;5.63;;;-0.50;99.90;;;;;;5071163;28;20083;-83
2021/12/27 02:03:22;;;;;;;7.45;5.28;;;-0.90;99.90;;;;;;5054184;28;20479;-83
2021/12/27 02:05:48;;;;;;;11.02;7.47;;;-1.00;99.90;;;;;;5071044;28;20055;-83
2021/12/27 02:08:14;;;;;;;15.57;6.97;;;-0.70;99.90;;;;;;5070817;28;20041;-83
2021/12/27 02:10:41;;;;;;;11.27;7.17;;;-1.00;99.90;;;;;;5054009;28;20045;-83
2021/12/27 02:13:07;;;;;;;8.45;6.82;;;-1.00;99.90;;;;;;5037673;28;20499;-83
2021/12/27 02:15:33;;;;;;;20.70;8.18;;;-1.00;99.90;;;;;;5053921;28;20253;-83
2021/12/27 02:17:59;;;;;;;11.33;6.27;;;-0.80;99.90;;;;;;5037689;28;20041;-83
2021/12/27 02:20:27;;;;;;;7.70;5.70;;;-1.00;99.90;;;;;;5055982;28;20048;-84
2021/12/27 02:22:55;;;;;;;10.85;7.85;;;-0.70;99.90;;;;;;5058037;28;20048;-83
2021/12/27 02:25:21;;;;;;;11.07;6.80;;;-0.80;99.90;;;;;;5041313;28;20136;-83
2021/12/27 02:27:48;;;;;;;12.73;6.70;;;-0.90;99.90;;;;;;5064187;28;20131;-83
2021/12/27 02:30:17;;;;;;;11.57;7.35;;;-0.70;99.90;;;;;;5089611;28;20036;-83
2021/12/27 02:32:57;;;;;;;9.90;7.10;;;-0.50;99.90;;;;;;5062237;28;20124;-83
2021/12/27 02:35:27;;;;;;;10.95;6.43;;;-0.70;99.90;;;;;;5078862;28;20083;-83
2021/12/27 02:37:53;;;;;;;13.68;7.45;;;-0.10;99.90;;;;;;5085989;28;20127;-83
2021/12/27 02:40:21;;;;;;;13.45;6.72;;;-0.90;99.90;;;;;;5057531;28;20044;-83
2021/12/27 02:42:58;;;;;;;8.52;6.40;;;-0.90;99.90;;;;;;5053759;28;20047;-83
2021/12/27 02:45:25;;;;;;;13.35;7.47;;;-0.90;99.90;;;;;;5050494;28;20104;-83
2021/12/27 02:47:52;;;;;;;10.88;7.63;;;-0.90;99.90;;;;;;5050090;28;20045;-83
2021/12/27 02:50:18;;;;;;;14.52;7.85;;;-0.50;99.90;;;;;;5034035;28;20049;-83
2021/12/27 02:52:44;;;;;;;12.07;7.80;;;-0.10;99.90;;;;;;5050210;28;20064;-83
2021/12/27 02:55:15;;;;;;;11.00;6.63;;;-0.90;99.90;;;;;;5053911;28;20052;-83
2021/12/27 02:57:46;;;;;;;11.95;6.97;;;-0.90;99.90;;;;;;5036599;28;20495;-83
2021/12/27 03:00:18;;;;;;;14.90;7.55;;;-0.90;99.90;;;;;;5082925;28;20465;-83
2021/12/27 03:02:46;;;;;;;11.95;7.03;;;-0.90;99.90;;;;;;5054935;28;20060;-83
2021/12/27 03:05:16;;;;;;;9.73;6.47;;;-0.90;99.90;;;;;;5079263;28;20452;-83
2021/12/27 03:07:43;;;;;;;11.20;6.15;;;-0.90;99.90;;;;;;5090477;28;20131;-83
2021/12/27 03:10:11;;;;;;;20.73;8.02;;;-0.80;99.90;;;;;;5090811;28;20099;-83
2021/12/27 03:12:38;;;;;;;15.27;7.32;;;-0.20;99.90;;;;;;5090280;28;20055;-83
2021/12/27 03:15:05;;;;;;;;;;;-0.20;99.90;;;;;;5091047;28;20075;-83
2021/12/27 03:17:31;;;;;;;7.95;5.07;;;-0.80;99.90;;;;;;5080505;28;20293;-85
2021/12/27 03:19:56;;;;;;;9.40;6.40;;;-0.80;99.90;;;;;;5054633;28;20127;-83
2021/12/27 03:22:22;;;;;;;15.73;7.70;;;-0.80;99.90;;;;;;5054517;28;20052;-83
2021/12/27 03:24:48;;;;;;;8.82;6.60;;;-0.80;99.90;;;;;;5053231;28;20052;-83
2021/12/27 03:27:13;;;;;;;7.60;5.88;;;-0.80;99.90;;;;;;5087362;28;20155;-83
2021/12/27 03:29:39;;;;;;;13.82;7.03;;;-0.80;99.90;;;;;;5052832;28;20048;-84
2021/12/27 03:32:05;;;;;;;16.30;6.70;;;-0.80;99.90;;;;;;5068843;28;20045;-83
2021/12/27 03:34:33;;;;;;;12.10;5.70;;;-0.80;99.90;;;;;;5036485;28;20061;-83
2021/12/27 03:36:59;;;;;;;16.58;7.30;;;-0.80;99.90;;;;;;5051959;28;20078;-83
2021/12/27 03:39:25;;;;;;;16.75;8.13;;;-0.80;99.90;;;;;;5068228;28;20057;-83
2021/12/27 03:41:51;;;;;;;10.93;7.13;;;-0.20;99.90;;;;;;5052276;28;20483;-83
2021/12/27 03:44:16;;;;;;;12.57;6.10;;;-0.80;99.90;;;;;;5052892;28;20059;-82
2021/12/27 03:46:42;;;;;;;8.93;6.57;;;0.20;99.90;;;;;;5028366;28;20404;-83
2021/12/27 03:49:08;;;;;;;13.48;8.02;;;-0.80;99.90;;;;;;5034105;28;20392;-83
2021/12/27 03:51:33;;;;;;;16.45;8.23;;;0.20;99.90;;;;;;5033049;28;20074;-83
2021/12/27 03:53:59;;;;;;;14.98;7.85;;;-0.40;99.90;;;;;;5032530;28;20045;-83
2021/12/27 03:56:27;;;;;;;16.63;7.63;;;-0.70;99.90;;;;;;5000096;28;20468;-83
2021/12/27 03:58:59;;;;;;;8.85;6.68;;;0.20;99.90;;;;;;5056411;28;20049;-83
2021/12/27 04:01:26;;;;;;;15.07;8.82;;;-0.70;99.90;;;;;;5054023;28;20041;-83
2021/12/27 04:03:54;;;;;;;11.75;7.20;;;-0.10;99.90;;;;;;5068441;28;20053;-83
2021/12/27 04:06:23;;;;;;;13.38;8.15;;;-0.70;99.90;;;;;;5052664;28;20049;-83
2021/12/27 04:08:49;;;;;;;9.63;7.13;;;-0.70;99.90;;;;;;5068863;28;20044;-83
2021/12/27 04:11:15;;;;;;;16.50;7.87;;;-0.70;99.90;;;;;;5069339;28;20102;-83
2021/12/27 04:13:41;;;;;;;13.90;7.70;;;-0.70;99.90;;;;;;5035637;28;20045;-83
2021/12/27 04:16:07;;;;;;;12.60;7.38;;;0.30;99.90;;;;;;5069263;28;20056;-82
2021/12/27 04:18:33;;;;;;;13.32;7.30;;;-0.70;99.90;;;;;;5052444;28;20045;-83
2021/12/27 04:20:59;;;;;;;11.17;7.30;;;0.00;99.90;;;;;;5035484;28;20479;-83
2021/12/27 04:23:25;;;;;;;8.95;7.13;;;-0.70;99.90;;;;;;5068748;28;20052;-83
2021/12/27 04:25:51;;;;;;;11.45;6.82;;;-0.70;99.90;;;;;;5052795;28;20591;-83
2021/12/27 04:28:19;;;;;;;13.10;7.68;;;-0.70;99.90;;;;;;5035643;28;20139;-83
2021/12/27 04:30:45;;;;;;;21.08;9.02;;;-0.70;99.90;;;;;;5042474;28;20511;-83
2021/12/27 04:33:11;;;;;;;16.58;7.03;;;0.00;99.90;;;;;;5032404;28;20046;-83
2021/12/27 04:35:37;;;;;;;11.50;5.93;;;0.10;99.90;;;;;;5015668;28;20114;-83
2021/12/27 04:38:03;;;;;;;15.20;7.57;;;-0.60;99.90;;;;;;5031682;28;20045;-83
2021/12/27 04:40:32;;;;;;;15.52;7.47;;;-0.60;99.90;;;;;;5032040;28;20487;-83
2021/12/27 04:43:07;;;;;;;16.73;8.95;;;-0.60;99.90;;;;;;5030429;28;20045;-83
2021/12/27 04:45:33;;;;;;;16.38;7.70;;;0.30;99.90;;;;;;5054412;28;20090;-84
2021/12/27 04:48:01;;;;;;;16.38;7.68;;;-0.60;99.90;;;;;;5061202;28;20075;-83
2021/12/27 04:50:28;;;;;;;12.88;7.55;;;-0.60;99.90;;;;;;5074281;28;20053;-83
2021/12/27 04:52:54;;;;;;;10.98;7.85;;;-0.60;99.90;;;;;;5051459;28;20045;-84
2021/12/27 04:55:25;;;;;;;15.40;8.48;;;0.50;99.90;;;;;;5051679;28;20552;-83
2021/12/27 04:57:52;;;;;;;14.88;7.82;;;0.40;99.90;;;;;;5051170;28;20384;-83
2021/12/27 05:00:18;;;;;;;12.18;8.82;;;0.10;99.90;;;;;;5035233;28;20045;-83
2021/12/27 05:02:45;;;;;;;16.58;6.70;;;-0.60;99.90;;;;;;5051756;28;20399;-84
2021/12/27 05:05:11;;;;;;;15.23;7.63;;;-0.40;99.90;;;;;;5051560;28;20041;-84
2021/12/27 05:07:37;;;;;;;11.45;6.78;;;-0.60;99.90;;;;;;5035111;28;20044;-83
2021/12/27 05:10:04;;;;;;;14.07;8.67;;;-0.50;99.90;;;;;;5067986;28;20087;-83
2021/12/27 05:12:30;;;;;;;13.52;6.63;;;-0.50;99.90;;;;;;5035003;28;20049;-83
2021/12/27 05:14:56;;;;;;;16.75;9.13;;;0.10;99.90;;;;;;5067904;28;20114;-84
2021/12/27 05:17:22;;;;;;;16.73;9.57;;;-0.30;99.90;;;;;;5068009;28;20049;-83
2021/12/27 05:19:47;;;;;;;18.80;8.27;;;0.30;99.90;;;;;;5067466;28;20040;-85
2021/12/27 05:22:13;;;;;;;12.52;8.43;;;-0.50;99.90;;;;;;5052472;28;20068;-83
2021/12/27 05:24:39;;;;;;;19.13;8.95;;;-0.50;99.90;;;;;;5068482;28;20056;-83
2021/12/27 05:27:05;;;;;;;13.05;7.03;;;0.40;99.90;;;;;;5067873;28;20548;-83
2021/12/27 05:29:31;;;;;;;25.05;7.78;;;-0.50;99.90;;;;;;5052483;28;20068;-83
2021/12/27 05:32:01;;;;;;;18.13;7.73;;;-0.20;99.90;;;;;;5067765;28;20044;-83
2021/12/27 05:34:28;;;;;;;12.80;8.38;;;-0.50;99.90;;;;;;5051403;28;20056;-83
2021/12/27 05:36:54;;;;;;;;;;;-0.50;99.90;;;;;;5051409;28;20049;-84
2021/12/27 05:39:21;;;;;;;11.50;6.53;;;-0.50;99.90;;;;;;5034757;28;19967;-83
2021/12/27 05:41:48;;;;;;;13.18;8.25;;;-0.50;99.90;;;;;;5051314;28;20045;-84
2021/12/27 05:44:14;;;;;;;14.57;7.53;;;-0.50;99.90;;;;;;5067409;28;20479;-84
2021/12/27 05:46:40;;;;;;;13.00;7.50;;;-0.50;99.90;;;;;;5034680;28;20144;-84
2021/12/27 05:49:06;;;;;;;15.98;10.60;;;-0.50;99.90;;;;;;5049934;28;20418;-83
2021/12/27 05:51:32;;;;;;;14.15;7.63;;;-0.30;99.90;;;;;;5066684;28;20094;-84
2021/12/27 05:53:58;;;;;;;13.15;8.20;;;-0.50;99.90;;;;;;5050811;28;20041;-83
2021/12/27 05:56:24;;;;;;;21.20;9.98;;;-0.50;99.90;;;;;;5071798;28;20088;-84
2021/12/27 05:58:50;;;;;;;17.95;9.10;;;-0.50;99.90;;;;;;5063477;28;20423;-83
2021/12/27 06:01:16;;;;;;;16.63;8.23;;;-0.50;99.90;;;;;;5056072;28;20579;-83
2021/12/27 06:03:42;;;;;;;15.13;8.65;;;0.10;99.90;;;;;;5071669;28;20037;-83
2021/12/27 06:06:08;;;;;;;17.90;7.60;;;-0.50;99.90;;;;;;5071291;28;20483;-84
2021/12/27 06:08:34;;;;;;;17.08;8.82;;;0.50;99.90;;;;;;5038439;28;20044;-84
2021/12/27 06:11:00;;;;;;;19.80;9.05;;;0.60;99.90;;;;;;5037974;28;20049;-84
2021/12/27 06:13:26;;;;;;;18.80;9.23;;;-0.50;99.90;;;;;;5038270;28;20048;-84
2021/12/27 06:15:51;;;;;;;15.57;9.35;;;-0.50;99.90;;;;;;5054723;28;20055;-83
2021/12/27 06:18:17;;;;;;;11.88;6.72;;;-0.50;99.90;;;;;;5070910;28;20474;-83
2021/12/27 06:20:43;;;;;;;22.45;9.23;;;-0.50;99.90;;;;;;5038099;28;20110;-83
2021/12/27 06:23:08;;;;;;;17.70;7.38;;;-0.50;99.90;;;;;;5037325;28;20045;-83
2021/12/27 06:25:34;;;;;;;13.55;8.88;;;-0.50;99.90;;;;;;5070948;28;20045;-83
2021/12/27 06:28:00;;;;;;;13.15;7.55;;;-0.50;99.90;;;;;;5070878;28;20064;-84
2021/12/27 06:30:26;;;;;;;22.45;10.27;;;-0.50;99.90;;;;;;5070661;28;20478;-84
2021/12/27 06:32:52;;;;;;;16.23;9.13;;;-0.50;99.90;;;;;;5054239;28;20047;-84
2021/12/27 06:35:19;;;;;;;14.30;8.18;;;-0.70;99.90;;;;;;5037430;28;20041;-83
2021/12/27 06:37:46;;;;;;;16.15;8.00;;;-0.50;99.90;;;;;;5037632;28;20053;-83
2021/12/27 06:40:14;;;;;;;15.30;9.00;;;-0.50;99.90;;;;;;5037300;28;20495;-84
2021/12/27 06:42:41;;;;;;;16.05;9.75;;;-0.50;99.90;;;;;;5054121;28;20498;-83
2021/12/27 06:45:09;;;;;;;16.58;8.50;;;-0.50;99.90;;;;;;5069908;28;20049;-84
2021/12/27 06:47:35;;;;;;;19.83;8.07;;;-0.50;99.90;;;;;;5071065;28;20045;-83
2021/12/27 06:50:02;;;;;;;13.20;7.53;;;-0.50;99.90;;;;;;5053689;28;20044;-84
2021/12/27 06:52:28;;;;;;;18.05;8.43;;;-0.50;99.90;;;;;;5070799;28;20138;-84
2021/12/27 06:54:54;;;;;;;17.95;7.82;;;0.50;99.90;;;;;;5037006;28;20095;-83
2021/12/27 06:57:20;;;;;;;12.23;8.10;;;-0.50;99.90;;;;;;5036214;28;20040;-84
2021/12/27 06:59:46;;;;;;;15.20;10.23;;;-0.50;99.90;;;;;;5053052;28;20529;-84
2021/12/27 07:02:14;;;;;;;10.90;8.00;;;-0.50;99.90;;;;;;5069891;28;20072;-84
2021/12/27 07:04:39;;;;;;;;;;;-0.10;99.90;;;;;;5054386;28;20064;-84
2021/12/27 07:07:05;;;;;;;11.48;7.07;;;0.50;99.90;;;;;;5070115;28;19920;-84
2021/12/27 07:09:31;;;;;;;14.05;9.65;;;-0.50;99.90;;;;;;5070783;28;20131;-84
2021/12/27 07:11:56;;;;;;;25.08;8.77;;;0.10;99.90;;;;;;5053720;28;20126;-84
2021/12/27 07:14:22;;;;;;;19.85;8.82;;;0.30;99.90;;;;;;5070053;28;20132;-84
2021/12/27 07:16:49;;;;;;;9.75;6.50;;;-0.10;99.90;;;;;;5053848;28;20116;-84
2021/12/27 07:19:15;;;;;;;13.88;8.63;;;-0.50;99.90;;;;;;5036335;28;20155;-83
2021/12/27 07:21:41;;;;;;;27.83;10.73;;;-0.40;99.90;;;;;;5053650;28;20071;-84
2021/12/27 07:24:07;;;;;;;12.10;8.97;;;-0.50;99.90;;;;;;5067010;28;20142;-84
2021/12/27 07:26:33;;;;;;;19.27;8.67;;;-0.40;99.90;;;;;;5090172;28;20497;-84
2021/12/27 07:28:59;;;;;;;13.30;8.57;;;0.10;99.90;;;;;;5090380;28;20294;-84
2021/12/27 07:31:24;;;;;;;19.58;10.10;;;-0.10;99.90;;;;;;5074712;28;20072;-85
2021/12/27 07:33:50;;;;;;;10.57;8.45;;;-0.50;99.90;;;;;;5053230;28;20049;-84
2021/12/27 07:36:16;;;;;;;14.27;8.45;;;-0.40;99.90;;;;;;5069276;28;20071;-85
2021/12/27 07:38:42;;;;;;;12.73;7.75;;;-0.40;99.90;;;;;;5071343;28;20053;-87
2021/12/27 07:41:11;;;;;;;15.57;9.50;;;-0.40;99.90;;;;;;5040678;28;20495;-87
2021/12/27 07:43:37;;;;;;;13.43;8.82;;;-0.40;99.90;;;;;;5070438;28;20179;-89
2021/12/27 07:46:03;;;;;;;26.05;11.25;;;-0.40;99.90;;;;;;5067522;28;20095;-89
2021/12/27 07:48:28;;;;;;;20.38;9.75;;;-0.40;99.90;;;;;;5052951;28;20136;-89
2021/12/27 07:50:54;;;;;;;15.45;10.05;;;-0.40;99.90;;;;;;5053176;28;20041;-89
2021/12/27 07:53:20;;;;;;;19.60;11.40;;;0.30;99.90;;;;;;5052763;28;20049;-85
2021/12/27 07:55:46;;;;;;;21.42;10.27;;;-0.40;99.90;;;;;;5053064;28;20510;-87
2021/12/27 07:58:12;;;;;;;11.30;8.13;;;-0.40;99.90;;;;;;5055587;28;20044;-87
2021/12/27 08:00:37;;;;;;;23.25;9.77;;;-0.30;99.90;;;;;;5053902;28;20052;-95
2021/12/27 08:03:05;;;;;;;13.25;8.90;;;-0.30;99.90;;;;;;5069983;28;20041;-86
2021/12/27 08:05:31;;;;;;;17.92;8.75;;;-0.30;99.90;;;;;;5051417;28;20486;-86
2021/12/27 08:07:56;;;;;;;20.45;9.40;;;-0.30;99.90;;;;;;5036386;28;20049;-86
2021/12/27 08:10:22;;;;;;;17.85;9.88;;;-0.30;99.90;;;;;;5051907;28;20041;-87
2021/12/27 08:12:48;;;;;;;19.83;9.38;;;0.80;99.90;;;;;;5035218;28;20462;-86
2021/12/27 08:15:14;;;;;;;21.02;11.77;;;0.30;99.90;;;;;;5067954;28;20049;-87
2021/12/27 08:17:40;;;;;;;20.38;9.93;;;-0.20;99.90;;;;;;5034926;28;20051;-85
2021/12/27 08:20:07;;;;;;;21.05;10.70;;;-0.20;99.90;;;;;;5068587;28;20056;-85
2021/12/27 08:22:33;;;;;;;25.70;11.90;;;-0.20;99.90;;;;;;5052096;28;20094;-84
2021/12/27 08:25:00;;;;;;;20.85;9.50;;;-0.20;99.90;;;;;;5035712;28;20057;-89
2021/12/27 08:27:27;;;;;;;24.02;11.48;;;0.00;99.90;;;;;;5051014;28;20039;-85
2021/12/27 08:29:53;;;;;;;35.28;12.23;;;-0.10;99.90;;;;;;5068921;28;20405;-88
2021/12/27 08:32:19;;;;;;;20.03;10.60;;;-0.10;99.90;;;;;;5035429;28;20044;-87
2021/12/27 08:34:45;;;;;;;17.83;11.30;;;0.50;99.90;;;;;;5035209;28;20044;-84
2021/12/27 08:37:11;;;;;;;17.08;10.82;;;-0.10;99.90;;;;;;5035648;28;20032;-87
2021/12/27 08:39:38;;;;;;;28.92;12.48;;;-0.10;99.90;;;;;;5033479;28;20049;-84
2021/12/27 08:42:08;;;;;;;18.00;12.55;;;0.50;99.90;;;;;;5050930;28;20079;-84
2021/12/27 08:44:35;;;;;;;17.38;11.45;;;0.00;99.90;;;;;;5047053;28;20926;-84
2021/12/27 08:47:05;;;;;;;28.40;11.20;;;0.00;99.90;;;;;;5065889;28;20071;-84
2021/12/27 08:49:31;;;;;;;21.27;9.30;;;0.00;99.90;;;;;;5066151;28;20048;-88
2021/12/27 08:51:57;;;;;;;21.85;11.60;;;0.10;99.90;;;;;;5049801;28;20049;-88
2021/12/27 08:54:23;;;;;;;24.30;12.52;;;0.10;99.90;;;;;;5050666;28;20100;-84
2021/12/27 08:56:48;;;;;;;20.30;12.20;;;0.10;99.90;;;;;;5051358;28;20048;-84
2021/12/27 08:59:14;;;;;;;27.27;12.43;;;0.10;99.90;;;;;;5050298;28;20049;-85
2021/12/27 09:01:40;;;;;;;26.13;11.35;;;0.10;99.90;;;;;;5032749;28;20135;-85
2021/12/27 09:04:07;;;;;;;19.75;11.43;;;0.10;99.90;;;;;;5066379;28;20099;-85
2021/12/27 09:06:34;;;;;;;23.58;11.98;;;1.00;99.90;;;;;;5032901;28;20056;-85
2021/12/27 09:09:02;;;;;;;27.40;13.32;;;0.20;99.90;;;;;;5066200;28;20037;-84
2021/12/27 09:11:28;;;;;;;24.20;11.35;;;1.10;99.90;;;;;;5049388;28;20041;-85
2021/12/27 09:13:53;;;;;;;22.20;11.88;;;0.60;99.90;;;;;;5049909;28;20548;-86
2021/12/27 09:16:19;;;;;;;45.63;13.82;;;0.20;99.90;;;;;;5049460;28;20060;-86
2021/12/27 09:18:45;;;;;;;22.90;12.77;;;0.40;99.90;;;;;;5048657;28;20041;-85
2021/12/27 09:21:11;;;;;;;25.43;11.57;;;0.30;99.90;;;;;;5049781;28;20369;-86
2021/12/27 09:23:36;;;;;;;22.77;12.65;;;0.30;99.90;;;;;;5032908;28;20052;-85
2021/12/27 09:26:03;;;;;;;17.30;11.57;;;0.30;99.90;;;;;;5033192;28;20044;-85
2021/12/27 09:28:29;;;;;;;35.65;14.52;;;1.10;99.90;;;;;;5033968;28;20127;-85
2021/12/27 09:30:56;;;;;;;34.85;12.32;;;0.80;99.90;;;;;;5055530;28;20044;-90
2021/12/27 09:33:22;;;;;;;26.85;13.35;;;1.20;99.90;;;;;;5057110;28;20045;-90
2021/12/27 09:35:48;;;;;;;29.10;13.20;;;0.40;99.90;;;;;;5038389;28;20063;-87
2021/12/27 09:38:15;;;;;;;20.08;11.82;;;1.40;99.90;;;;;;5070868;28;20466;-86
2021/12/27 09:40:41;;;;;;;35.25;14.52;;;0.80;99.90;;;;;;5052893;28;20431;-86
2021/12/27 09:43:08;;;;;;;34.83;16.55;;;0.40;99.90;;;;;;5087260;28;20051;-90
2021/12/27 09:45:34;;;;;;;25.85;11.70;;;1.60;99.90;;;;;;5060547;28;20123;-90
2021/12/27 09:48:00;;;;;;;27.20;12.77;;;0.50;99.90;;;;;;5078378;28;20136;-90
2021/12/27 09:50:44;;;;;;;39.95;15.20;;;0.50;99.90;;;;;;5063638;28;20083;-89
2021/12/27 09:53:10;;;;;;;35.45;14.32;;;0.50;99.90;;;;;;5061162;28;20546;-94
2021/12/27 09:55:36;;;;;;;24.33;13.20;;;0.50;99.90;;;;;;5081647;28;20045;-88
2021/12/27 09:58:02;;;;;;;24.40;12.93;;;0.90;99.90;;;;;;5076095;28;20799;-89
2021/12/27 10:00:28;;;;;;;40.15;15.32;;;0.60;99.90;;;;;;5061857;28;20098;-88
2021/12/27 10:02:56;;;;;;;27.30;12.93;;;0.60;99.90;;;;;;5062763;28;20114;-88
2021/12/27 10:05:24;;;;;;;31.80;14.55;;;0.60;99.90;;;;;;5059494;28;20052;-88
2021/12/27 10:07:50;;;;;;;62.03;16.40;;;0.60;99.90;;;;;;5078594;28;20128;-88
2021/12/27 10:10:17;;;;;;;37.92;15.93;;;1.70;99.90;;;;;;5059331;28;20092;-89
2021/12/27 10:12:43;;;;;;;29.63;15.35;;;1.20;99.90;;;;;;5105940;28;20121;-90
2021/12/27 10:15:18;;;;;;;29.38;15.07;;;1.20;99.90;;;;;;5074939;28;20048;-88
2021/12/27 10:17:45;;;;;;;29.90;14.65;;;0.70;99.90;;;;;;5061609;28;20053;-89
2021/12/27 10:20:16;;;;;;;47.00;15.53;;;0.70;99.90;;;;;;5063401;28;20047;-88
2021/12/27 10:22:47;;;;;;;36.63;14.25;;;0.70;99.90;;;;;;5078818;28;20397;-89
2021/12/27 10:25:17;;;;;;;30.88;15.68;;;0.80;99.90;;;;;;5068944;28;20083;-88
2021/12/27 10:27:44;;;;;;;35.10;14.55;;;1.50;99.90;;;;;;5066146;28;20048;-90
2021/12/27 10:30:16;;;;;;;35.05;15.02;;;1.20;99.90;;;;;;5064770;28;20037;-88
2021/12/27 10:32:43;;;;;;;31.20;16.00;;;0.80;99.90;;;;;;5053919;28;20056;-88
2021/12/27 10:35:10;;;;;;;41.20;17.80;;;0.90;99.90;;;;;;5091493;28;20062;-89
2021/12/27 10:37:37;;;;;;;36.45;15.10;;;0.90;99.90;;;;;;5046158;28;20067;-88
2021/12/27 10:40:03;;;;;;;;;;;2.00;99.90;;;;;;5063008;28;20045;-88
2021/12/27 10:42:45;;;;;;;31.52;14.63;;;0.90;99.90;;;;;;5064925;28;19921;-88
2021/12/27 10:45:22;;;;;;;33.88;13.48;;;1.30;99.90;;;;;;5065768;28;20074;-88
2021/12/27 10:47:51;;;;;;;34.17;16.45;;;0.90;99.90;;;;;;5063241;28;20053;-88
2021/12/27 10:50:32;;;;;;;38.35;15.85;;;1.60;99.90;;;;;;5072345;28;20041;-88
2021/12/27 10:52:57;;;;;;;41.45;15.23;;;1.10;99.90;;;;;;5080883;28;20428;-90
2021/12/27 10:55:29;;;;;;;42.53;16.17;;;1.00;99.90;;;;;;5074194;28;20096;-93
2021/12/27 10:58:14;;;;;;;38.10;17.02;;;1.00;99.90;;;;;;5068832;28;20041;-89
2021/12/27 11:00:42;;;;;;;38.72;16.38;;;1.10;99.90;;;;;;5055352;28;20045;-90
2021/12/27 11:03:31;;;;;;;35.25;14.88;;;1.10;99.90;;;;;;5072576;28;20098;-89
2021/12/27 11:05:59;;;;;;;33.35;14.23;;;1.10;99.90;;;;;;5071214;28;20041;-89
2021/12/27 11:08:27;;;;;;;37.60;16.77;;;1.50;99.90;;;;;;5046106;28;20041;-89
2021/12/27 11:10:53;;;;;;;40.58;15.60;;;1.10;99.90;;;;;;5071875;28;20067;-88
2021/12/27 11:13:19;;;;;;;44.03;17.85;;;1.20;99.90;;;;;;5055307;28;20368;-87
2021/12/27 11:15:45;;;;;;;26.35;13.88;;;1.10;99.90;;;;;;5064475;28;20048;-88
2021/12/27 11:18:15;;;;;;;31.48;17.63;;;1.60;99.90;;;;;;5071586;28;20094;-88
2021/12/27 11:20:46;;;;;;;40.58;16.25;;;1.10;99.90;;;;;;5076164;28;20079;-90
2021/12/27 11:23:13;;;;;;;59.17;18.25;;;1.60;99.90;;;;;;5074363;28;20132;-90
2021/12/27 11:25:39;;;;;;;;;;;1.20;99.90;;;;;;5053778;28;20102;-88
2021/12/27 11:28:23;;;;;;;29.30;12.93;;;1.20;99.90;;;;;;5053537;28;19977;-91
2021/12/27 11:30:49;;;;;;;37.13;14.75;;;1.20;99.90;;;;;;5060241;28;20425;-91
2021/12/27 11:33:17;;;;;;;35.50;17.17;;;1.20;99.90;;;;;;5042654;28;20051;-92
2021/12/27 11:35:51;;;;;;;45.05;16.90;;;1.70;99.90;;;;;;5062361;28;20049;-90
2021/12/27 11:38:42;;;;;;;36.38;16.77;;;2.00;99.90;;;;;;5072773;28;20074;-88
2021/12/27 11:41:26;;;;;;;44.78;15.23;;;1.20;99.90;;;;;;5052970;28;20051;-88
2021/12/27 11:44:23;;;;;;;35.20;14.90;;;1.20;99.90;;;;;;5057521;28;20076;-92
2021/12/27 11:46:52;;;;;;;36.50;16.70;;;1.20;99.90;;;;;;5077449;28;20480;-90
2021/12/27 11:49:32;;;;;;;47.70;17.60;;;1.20;99.90;;;;;;5065472;28;20394;-91
2021/12/27 11:52:14;;;;;;;52.20;18.38;;;1.20;99.90;;;;;;5065075;28;20546;-90
2021/12/27 11:54:58;;;;;;;46.05;16.52;;;1.20;99.90;;;;;;5076767;28;20044;-91
2021/12/27 11:57:56;;;;;;;60.90;19.33;;;1.30;99.90;;;;;;5063204;28;20061;-90
2021/12/27 12:00:21;;;;;;;37.78;15.98;;;1.20;99.90;;;;;;5049568;28;20058;-91
2021/12/27 12:02:54;;;;;;;37.67;16.52;;;1.30;99.90;;;;;;5039391;28;20483;-91
2021/12/27 12:05:44;;;;;;;56.55;18.77;;;1.30;99.90;;;;;;5052990;28;20080;-89
2021/12/27 12:08:17;;;;;;;55.17;20.05;;;1.30;99.90;;;;;;5073605;28;20056;-89
2021/12/27 12:10:51;;;;;;;36.00;15.40;;;1.40;99.90;;;;;;5071182;28;20513;-90
2021/12/27 12:13:26;;;;;;;38.55;18.08;;;0.30;99.90;;;;;;5066698;28;20066;-88
2021/12/27 12:15:55;;;;;;;28.98;14.05;;;1.40;99.90;;;;;;5053368;28;20040;-89
2021/12/27 12:18:21;;;;;;;53.10;20.10;;;1.50;99.90;;;;;;5055034;28;20128;-89
2021/12/27 12:20:47;;;;;;;60.22;18.42;;;2.70;99.90;;;;;;5044633;28;20128;-89
2021/12/27 12:23:12;;;;;;;45.92;18.77;;;1.50;99.90;;;;;;5044776;28;20032;-88
2021/12/27 12:25:39;;;;;;;56.08;18.85;;;1.50;99.90;;;;;;5046849;28;20072;-89
2021/12/27 12:28:08;;;;;;;51.93;19.40;;;2.60;99.90;;;;;;5051994;28;20130;-88
2021/12/27 12:30:37;;;;;;;47.50;16.25;;;1.50;99.90;;;;;;5066573;28;20132;-88
2021/12/27 12:33:10;;;;;;;41.25;17.23;;;1.50;99.90;;;;;;5069852;28;20047;-89
2021/12/27 12:35:50;;;;;;;73.00;20.27;;;1.60;99.90;;;;;;5063138;28;20505;-90
2021/12/27 12:38:23;;;;;;;39.60;15.82;;;1.60;99.90;;;;;;5069796;28;20147;-89
2021/12/27 12:41:17;;;;;;;42.97;17.88;;;1.60;99.90;;;;;;5061465;28;20070;-93
2021/12/27 12:43:46;;;;;;;47.75;17.13;;;1.60;99.90;;;;;;5067717;28;20474;-91